sensor_id;sensor_type;location;lat;lon;timestamp;temperature;humidity
6293;DHT22;3179;54.350;10.102;2022-12-18T00:02:13;-0.90;99.90
6293;DHT22;3179;54.350;10.102;2022-12-18T00:04:39;-0.90;99.90
6293;DHT22;3179;54.350;10.102;2022-12-18T00:07:06;-0.90;99.90
6293;DHT22;3179;54.350;10.102;2022-12-18T00:09:33;-0.90;99.90
6293;DHT22;3179;54.350;10.102;2022-12-18T00:12:00;-0.90;99.90
6293;DHT22;3179;54.350;10.102;2022-12-18T00:14:27;-1.00;99.90
6293;DHT22;3179;54.350;10.102;2022-12-18T00:16:53;-1.00;99.90
6293;DHT22;3179;54.350;10.102;2022-12-18T00:19:22;-1.00;99.90
6293;DHT22;3179;54.350;10.102;2022-12-18T00:21:48;-1.00;99.90
6293;DHT22;3179;54.350;10.102;2022-12-18T00:24:15;-1.00;99.90
6293;DHT22;3179;54.350;10.102;2022-12-18T00:26:42;-0.90;99.90
6293;DHT22;3179;54.350;10.102;2022-12-18T00:29:12;-0.90;99.90
6293;DHT22;3179;54.350;10.102;2022-12-18T00:31:40;-0.90;99.90
6293;DHT22;3179;54.350;10.102;2022-12-18T00:34:09;-0.90;99.90
6293;DHT22;3179;54.350;10.102;2022-12-18T00:36:39;-0.90;99.90
6293;DHT22;3179;54.350;10.102;2022-12-18T00:39:06;-0.90;99.90
6293;DHT22;3179;54.350;10.102;2022-12-18T00:41:33;-0.90;99.90
6293;DHT22;3179;54.350;10.102;2022-12-18T00:44:18;-0.90;99.90
6293;DHT22;3179;54.350;10.102;2022-12-18T00:46:46;-0.90;99.90
6293;DHT22;3179;54.350;10.102;2022-12-18T00:49:14;-0.90;99.90
6293;DHT22;3179;54.350;10.102;2022-12-18T00:51:43;-0.90;99.90
6293;DHT22;3179;54.350;10.102;2022-12-18T00:54:10;-0.90;99.90
6293;DHT22;3179;54.350;10.102;2022-12-18T00:56:37;-0.90;99.90
6293;DHT22;3179;54.350;10.102;2022-12-18T00:59:04;-0.90;99.90
6293;DHT22;3179;54.350;10.102;2022-12-18T01:01:31;-1.00;99.90
6293;DHT22;3179;54.350;10.102;2022-12-18T01:03:59;-1.00;99.90
6293;DHT22;3179;54.350;10.102;2022-12-18T01:06:26;-1.00;99.90
6293;DHT22;3179;54.350;10.102;2022-12-18T01:08:55;-1.00;99.90
6293;DHT22;3179;54.350;10.102;2022-12-18T01:11:21;-1.00;99.90
6293;DHT22;3179;54.350;10.102;2022-12-18T01:13:48;-1.00;99.90
6293;DHT22;3179;54.350;10.102;2022-12-18T01:16:16;-1.00;99.90
6293;DHT22;3179;54.350;10.102;2022-12-18T01:18:43;-1.00;99.90
6293;DHT22;3179;54.350;10.102;2022-12-18T01:21:12;-0.90;99.90
6293;DHT22;3179;54.350;10.102;2022-12-18T01:23:40;-1.00;99.90
6293;DHT22;3179;54.350;10.102;2022-12-18T01:26:09;-0.90;99.90
6293;DHT22;3179;54.350;10.102;2022-12-18T01:28:37;-0.90;99.90
6293;DHT22;3179;54.350;10.102;2022-12-18T01:31:15;-0.90;99.90
6293;DHT22;3179;54.350;10.102;2022-12-18T01:33:42;-0.90;99.90
6293;DHT22;3179;54.350;10.102;2022-12-18T01:36:15;-0.90;99.90
6293;DHT22;3179;54.350;10.102;2022-12-18T01:38:42;-1.00;99.90
6293;DHT22;3179;54.350;10.102;2022-12-18T01:41:10;-0.90;99.90
6293;DHT22;3179;54.350;10.102;2022-12-18T01:43:49;-0.90;99.90
6293;DHT22;3179;54.350;10.102;2022-12-18T01:46:18;-0.90;99.90
6293;DHT22;3179;54.350;10.102;2022-12-18T01:48:48;-0.90;99.90
6293;DHT22;3179;54.350;10.102;2022-12-18T01:51:16;-0.90;99.90
6293;DHT22;3179;54.350;10.102;2022-12-18T01:53:44;-0.90;99.90
6293;DHT22;3179;54.350;10.102;2022-12-18T01:56:15;-0.90;99.90
6293;DHT22;3179;54.350;10.102;2022-12-18T01:58:48;-0.90;99.90
6293;DHT22;3179;54.350;10.102;2022-12-18T02:01:17;-0.90;99.90
6293;DHT22;3179;54.350;10.102;2022-12-18T02:03:44;-0.90;99.90
6293;DHT22;3179;54.350;10.102;2022-12-18T02:06:15;-0.90;99.90
6293;DHT22;3179;54.350;10.102;2022-12-18T02:08:52;-0.90;99.90
6293;DHT22;3179;54.350;10.102;2022-12-18T02:11:35;-0.90;99.90
6293;DHT22;3179;54.350;10.102;2022-12-18T02:14:18;-0.90;99.90
6293;DHT22;3179;54.350;10.102;2022-12-18T02:16:52;-0.90;99.90
6293;DHT22;3179;54.350;10.102;2022-12-18T02:19:37;-1.00;99.90
6293;DHT22;3179;54.350;10.102;2022-12-18T02:22:15;-1.00;99.90
6293;DHT22;3179;54.350;10.102;2022-12-18T02:24:57;-0.90;99.90
6293;DHT22;3179;54.350;10.102;2022-12-18T02:27:28;-0.90;99.90
6293;DHT22;3179;54.350;10.102;2022-12-18T02:29:57;-0.90;99.90
6293;DHT22;3179;54.350;10.102;2022-12-18T02:32:27;-0.90;99.90
6293;DHT22;3179;54.350;10.102;2022-12-18T02:34:56;-0.90;99.90
6293;DHT22;3179;54.350;10.102;2022-12-18T02:37:23;-0.90;99.90
6293;DHT22;3179;54.350;10.102;2022-12-18T02:39:53;-0.90;99.90
6293;DHT22;3179;54.350;10.102;2022-12-18T02:42:21;-0.90;99.90
6293;DHT22;3179;54.350;10.102;2022-12-18T02:44:51;-0.90;99.90
6293;DHT22;3179;54.350;10.102;2022-12-18T02:47:20;-0.90;99.90
6293;DHT22;3179;54.350;10.102;2022-12-18T02:49:55;-0.90;99.90
6293;DHT22;3179;54.350;10.102;2022-12-18T02:52:31;-0.90;99.90
6293;DHT22;3179;54.350;10.102;2022-12-18T02:55:12;-0.90;99.90
6293;DHT22;3179;54.350;10.102;2022-12-18T02:57:45;-0.90;99.90
6293;DHT22;3179;54.350;10.102;2022-12-18T03:00:17;-1.00;99.90
6293;DHT22;3179;54.350;10.102;2022-12-18T03:02:47;-1.00;99.90
6293;DHT22;3179;54.350;10.102;2022-12-18T03:05:17;-1.00;99.90
6293;DHT22;3179;54.350;10.102;2022-12-18T03:07:49;-1.00;99.90
6293;DHT22;3179;54.350;10.102;2022-12-18T03:10:21;-1.00;99.90
6293;DHT22;3179;54.350;10.102;2022-12-18T03:12:52;-0.90;99.90
6293;DHT22;3179;54.350;10.102;2022-12-18T03:15:24;-0.90;99.90
6293;DHT22;3179;54.350;10.102;2022-12-18T03:17:55;-0.90;99.90
6293;DHT22;3179;54.350;10.102;2022-12-18T03:20:24;-1.00;99.90
6293;DHT22;3179;54.350;10.102;2022-12-18T03:23:04;-1.00;99.90
6293;DHT22;3179;54.350;10.102;2022-12-18T03:25:33;-1.00;99.90
6293;DHT22;3179;54.350;10.102;2022-12-18T03:28:03;-1.00;99.90
6293;DHT22;3179;54.350;10.102;2022-12-18T03:30:33;-1.00;99.90
6293;DHT22;3179;54.350;10.102;2022-12-18T03:33:07;-1.00;99.90
6293;DHT22;3179;54.350;10.102;2022-12-18T03:35:38;-1.00;99.90
6293;DHT22;3179;54.350;10.102;2022-12-18T03:38:06;-1.00;99.90
6293;DHT22;3179;54.350;10.102;2022-12-18T03:40:41;-1.00;99.90
6293;DHT22;3179;54.350;10.102;2022-12-18T03:43:14;-1.00;99.90
6293;DHT22;3179;54.350;10.102;2022-12-18T03:45:50;-1.00;99.90
6293;DHT22;3179;54.350;10.102;2022-12-18T03:48:23;-1.00;99.90
6293;DHT22;3179;54.350;10.102;2022-12-18T03:50:56;-1.10;99.90
6293;DHT22;3179;54.350;10.102;2022-12-18T03:53:29;-1.10;99.90
6293;DHT22;3179;54.350;10.102;2022-12-18T03:55:59;-1.10;99.90
6293;DHT22;3179;54.350;10.102;2022-12-18T03:58:27;-1.00;99.90
6293;DHT22;3179;54.350;10.102;2022-12-18T04:01:00;-1.00;99.90
6293;DHT22;3179;54.350;10.102;2022-12-18T04:03:29;-1.00;99.90
6293;DHT22;3179;54.350;10.102;2022-12-18T04:05:59;-1.00;99.90
6293;DHT22;3179;54.350;10.102;2022-12-18T04:08:27;-1.00;99.90
6293;DHT22;3179;54.350;10.102;2022-12-18T04:10:54;-1.00;99.90
6293;DHT22;3179;54.350;10.102;2022-12-18T04:13:24;-1.00;99.90
6293;DHT22;3179;54.350;10.102;2022-12-18T04:15:51;-1.10;99.90
6293;DHT22;3179;54.350;10.102;2022-12-18T04:18:19;-1.10;99.90
6293;DHT22;3179;54.350;10.102;2022-12-18T04:20:46;-1.10;99.90
6293;DHT22;3179;54.350;10.102;2022-12-18T04:23:13;-1.10;99.90
6293;DHT22;3179;54.350;10.102;2022-12-18T04:25:40;-1.10;99.90
6293;DHT22;3179;54.350;10.102;2022-12-18T04:28:06;-1.10;99.90
6293;DHT22;3179;54.350;10.102;2022-12-18T04:30:33;-1.10;99.90
6293;DHT22;3179;54.350;10.102;2022-12-18T04:33:00;-1.10;99.90
6293;DHT22;3179;54.350;10.102;2022-12-18T04:35:28;-1.10;99.90
6293;DHT22;3179;54.350;10.102;2022-12-18T04:37:55;-1.10;99.90
6293;DHT22;3179;54.350;10.102;2022-12-18T04:40:22;-1.10;99.90
6293;DHT22;3179;54.350;10.102;2022-12-18T04:42:48;-1.20;99.90
6293;DHT22;3179;54.350;10.102;2022-12-18T04:45:15;-1.20;99.90
6293;DHT22;3179;54.350;10.102;2022-12-18T04:47:43;-1.20;99.90
6293;DHT22;3179;54.350;10.102;2022-12-18T04:50:09;-1.20;99.90
6293;DHT22;3179;54.350;10.102;2022-12-18T04:52:37;-1.20;99.90
6293;DHT22;3179;54.350;10.102;2022-12-18T04:55:05;-1.20;99.90
6293;DHT22;3179;54.350;10.102;2022-12-18T04:57:31;-1.20;99.90
6293;DHT22;3179;54.350;10.102;2022-12-18T04:59:58;-1.20;99.90
6293;DHT22;3179;54.350;10.102;2022-12-18T05:02:25;-1.20;99.90
6293;DHT22;3179;54.350;10.102;2022-12-18T05:04:52;-1.20;99.90
6293;DHT22;3179;54.350;10.102;2022-12-18T05:07:19;-1.20;99.90
6293;DHT22;3179;54.350;10.102;2022-12-18T05:09:47;-1.20;99.90
6293;DHT22;3179;54.350;10.102;2022-12-18T05:12:14;-1.20;99.90
6293;DHT22;3179;54.350;10.102;2022-12-18T05:14:41;-1.20;99.90
6293;DHT22;3179;54.350;10.102;2022-12-18T05:17:08;-1.20;99.90
6293;DHT22;3179;54.350;10.102;2022-12-18T05:19:34;-1.20;99.90
6293;DHT22;3179;54.350;10.102;2022-12-18T05:22:01;-1.20;99.90
6293;DHT22;3179;54.350;10.102;2022-12-18T05:24:28;-1.20;99.90
6293;DHT22;3179;54.350;10.102;2022-12-18T05:26:56;-1.20;99.90
6293;DHT22;3179;54.350;10.102;2022-12-18T05:29:23;-1.20;99.90
6293;DHT22;3179;54.350;10.102;2022-12-18T05:31:50;-1.20;99.90
6293;DHT22;3179;54.350;10.102;2022-12-18T05:34:17;-1.20;99.90
6293;DHT22;3179;54.350;10.102;2022-12-18T05:36:43;-1.20;99.90
6293;DHT22;3179;54.350;10.102;2022-12-18T05:39:10;-1.20;99.90
6293;DHT22;3179;54.350;10.102;2022-12-18T05:41:37;-1.20;99.90
6293;DHT22;3179;54.350;10.102;2022-12-18T05:44:05;-1.20;99.90
6293;DHT22;3179;54.350;10.102;2022-12-18T05:46:33;-1.20;99.80
6293;DHT22;3179;54.350;10.102;2022-12-18T05:49:00;-1.20;99.80
6293;DHT22;3179;54.350;10.102;2022-12-18T05:51:27;-1.20;99.80
6293;DHT22;3179;54.350;10.102;2022-12-18T05:53:54;-1.20;99.70
6293;DHT22;3179;54.350;10.102;2022-12-18T05:56:22;-1.20;99.70
6293;DHT22;3179;54.350;10.102;2022-12-18T05:58:51;-1.20;99.70
6293;DHT22;3179;54.350;10.102;2022-12-18T06:01:22;-1.20;99.60
6293;DHT22;3179;54.350;10.102;2022-12-18T06:03:50;-1.20;99.50
6293;DHT22;3179;54.350;10.102;2022-12-18T06:06:19;-1.20;99.60
6293;DHT22;3179;54.350;10.102;2022-12-18T06:08:46;-1.20;99.50
6293;DHT22;3179;54.350;10.102;2022-12-18T06:11:16;-1.20;99.50
6293;DHT22;3179;54.350;10.102;2022-12-18T06:13:44;-1.20;99.60
6293;DHT22;3179;54.350;10.102;2022-12-18T06:16:11;-1.20;99.60
6293;DHT22;3179;54.350;10.102;2022-12-18T06:18:39;-1.20;99.50
6293;DHT22;3179;54.350;10.102;2022-12-18T06:21:05;-1.20;99.50
6293;DHT22;3179;54.350;10.102;2022-12-18T06:23:32;-1.20;99.50
6293;DHT22;3179;54.350;10.102;2022-12-18T06:26:03;-1.20;99.40
6293;DHT22;3179;54.350;10.102;2022-12-18T06:28:30;-1.20;99.40
6293;DHT22;3179;54.350;10.102;2022-12-18T06:30:57;-1.20;99.40
6293;DHT22;3179;54.350;10.102;2022-12-18T06:33:26;-1.20;99.40
6293;DHT22;3179;54.350;10.102;2022-12-18T06:36:00;-1.20;99.40
6293;DHT22;3179;54.350;10.102;2022-12-18T06:38:26;-1.20;99.40
6293;DHT22;3179;54.350;10.102;2022-12-18T06:40:53;-1.20;99.30
6293;DHT22;3179;54.350;10.102;2022-12-18T06:43:20;-1.20;99.30
6293;DHT22;3179;54.350;10.102;2022-12-18T06:45:47;-1.20;99.30
6293;DHT22;3179;54.350;10.102;2022-12-18T06:48:18;-1.20;99.20
6293;DHT22;3179;54.350;10.102;2022-12-18T06:50:44;-1.20;99.20
6293;DHT22;3179;54.350;10.102;2022-12-18T06:53:13;-1.20;99.10
6293;DHT22;3179;54.350;10.102;2022-12-18T06:55:39;-1.20;99.10
6293;DHT22;3179;54.350;10.102;2022-12-18T06:58:06;-1.20;99.20
6293;DHT22;3179;54.350;10.102;2022-12-18T07:00:33;-1.20;99.20
6293;DHT22;3179;54.350;10.102;2022-12-18T07:02:59;-1.20;99.20
6293;DHT22;3179;54.350;10.102;2022-12-18T07:05:26;-1.20;99.10
6293;DHT22;3179;54.350;10.102;2022-12-18T07:07:53;-1.20;99.10
6293;DHT22;3179;54.350;10.102;2022-12-18T07:10:21;-1.30;98.90
6293;DHT22;3179;54.350;10.102;2022-12-18T07:12:48;-1.30;99.00
6293;DHT22;3179;54.350;10.102;2022-12-18T07:15:15;-1.30;98.90
6293;DHT22;3179;54.350;10.102;2022-12-18T07:17:41;-1.30;98.70
6293;DHT22;3179;54.350;10.102;2022-12-18T07:20:09;-1.30;98.80
6293;DHT22;3179;54.350;10.102;2022-12-18T07:22:36;-1.30;98.80
6293;DHT22;3179;54.350;10.102;2022-12-18T07:25:03;-1.30;98.90
6293;DHT22;3179;54.350;10.102;2022-12-18T07:27:32;-1.30;98.80
6293;DHT22;3179;54.350;10.102;2022-12-18T07:29:58;-1.30;98.80
6293;DHT22;3179;54.350;10.102;2022-12-18T07:32:25;-1.30;98.70
6293;DHT22;3179;54.350;10.102;2022-12-18T07:34:52;-1.30;98.60
6293;DHT22;3179;54.350;10.102;2022-12-18T07:37:18;-1.40;98.60
6293;DHT22;3179;54.350;10.102;2022-12-18T07:39:45;-1.40;98.60
6293;DHT22;3179;54.350;10.102;2022-12-18T07:42:12;-1.40;98.60
6293;DHT22;3179;54.350;10.102;2022-12-18T07:44:59;-1.40;98.60
6293;DHT22;3179;54.350;10.102;2022-12-18T07:47:26;-1.40;98.60
6293;DHT22;3179;54.350;10.102;2022-12-18T07:49:53;-1.40;98.60
6293;DHT22;3179;54.350;10.102;2022-12-18T07:52:21;-1.40;98.60
6293;DHT22;3179;54.350;10.102;2022-12-18T07:54:47;-1.40;98.60
6293;DHT22;3179;54.350;10.102;2022-12-18T07:57:15;-1.40;98.50
6293;DHT22;3179;54.350;10.102;2022-12-18T07:59:42;-1.40;98.60
6293;DHT22;3179;54.350;10.102;2022-12-18T08:02:10;-1.40;98.60
6293;DHT22;3179;54.350;10.102;2022-12-18T08:04:37;-1.40;98.60
6293;DHT22;3179;54.350;10.102;2022-12-18T08:07:04;-1.50;98.40
6293;DHT22;3179;54.350;10.102;2022-12-18T08:09:31;-1.40;98.50
6293;DHT22;3179;54.350;10.102;2022-12-18T08:11:57;-1.50;98.40
6293;DHT22;3179;54.350;10.102;2022-12-18T08:14:24;-1.50;98.40
6293;DHT22;3179;54.350;10.102;2022-12-18T08:16:51;-1.40;98.70
6293;DHT22;3179;54.350;10.102;2022-12-18T08:19:19;-1.40;98.40
6293;DHT22;3179;54.350;10.102;2022-12-18T08:21:46;-1.40;98.40
6293;DHT22;3179;54.350;10.102;2022-12-18T08:24:13;-1.40;98.30
6293;DHT22;3179;54.350;10.102;2022-12-18T08:26:40;-1.50;98.30
6293;DHT22;3179;54.350;10.102;2022-12-18T08:29:06;-1.50;98.30
6293;DHT22;3179;54.350;10.102;2022-12-18T08:31:33;-1.50;98.40
6293;DHT22;3179;54.350;10.102;2022-12-18T08:34:00;-1.50;98.40
6293;DHT22;3179;54.350;10.102;2022-12-18T08:36:28;-1.40;98.50
6293;DHT22;3179;54.350;10.102;2022-12-18T08:38:55;-1.40;98.50
6293;DHT22;3179;54.350;10.102;2022-12-18T08:41:23;-1.40;98.40
6293;DHT22;3179;54.350;10.102;2022-12-18T08:43:49;-1.40;98.50
6293;DHT22;3179;54.350;10.102;2022-12-18T08:46:36;-1.40;98.50
6293;DHT22;3179;54.350;10.102;2022-12-18T08:49:04;-1.40;98.40
6293;DHT22;3179;54.350;10.102;2022-12-18T08:51:33;-1.40;98.50
6293;DHT22;3179;54.350;10.102;2022-12-18T08:54:00;-1.40;98.50
6293;DHT22;3179;54.350;10.102;2022-12-18T08:56:27;-1.40;98.60
6293;DHT22;3179;54.350;10.102;2022-12-18T08:58:55;-1.40;98.60
6293;DHT22;3179;54.350;10.102;2022-12-18T09:01:22;-1.40;98.60
6293;DHT22;3179;54.350;10.102;2022-12-18T09:03:49;-1.40;98.60
6293;DHT22;3179;54.350;10.102;2022-12-18T09:06:17;-1.40;98.60
6293;DHT22;3179;54.350;10.102;2022-12-18T09:08:46;-1.30;98.70
6293;DHT22;3179;54.350;10.102;2022-12-18T09:11:14;-1.40;98.60
6293;DHT22;3179;54.350;10.102;2022-12-18T09:13:41;-1.30;98.70
6293;DHT22;3179;54.350;10.102;2022-12-18T09:16:08;-1.30;98.70
6293;DHT22;3179;54.350;10.102;2022-12-18T09:18:35;-1.30;98.80
6293;DHT22;3179;54.350;10.102;2022-12-18T09:21:08;-1.30;98.80
6293;DHT22;3179;54.350;10.102;2022-12-18T09:23:35;-1.30;98.80
6293;DHT22;3179;54.350;10.102;2022-12-18T09:26:03;-1.30;98.80
6293;DHT22;3179;54.350;10.102;2022-12-18T09:28:30;-1.30;98.80
6293;DHT22;3179;54.350;10.102;2022-12-18T09:30:57;-1.30;98.80
6293;DHT22;3179;54.350;10.102;2022-12-18T09:33:24;-1.20;98.80
6293;DHT22;3179;54.350;10.102;2022-12-18T09:35:51;-1.20;98.80
6293;DHT22;3179;54.350;10.102;2022-12-18T09:38:19;-1.20;98.80
6293;DHT22;3179;54.350;10.102;2022-12-18T09:40:48;-1.20;98.90
6293;DHT22;3179;54.350;10.102;2022-12-18T09:43:19;-1.20;98.90
6293;DHT22;3179;54.350;10.102;2022-12-18T09:45:51;-1.20;98.90
6293;DHT22;3179;54.350;10.102;2022-12-18T09:48:21;-1.20;98.90
6293;DHT22;3179;54.350;10.102;2022-12-18T09:50:50;-1.20;99.00
6293;DHT22;3179;54.350;10.102;2022-12-18T09:53:21;-1.20;99.00
6293;DHT22;3179;54.350;10.102;2022-12-18T09:55:51;-1.20;99.10
6293;DHT22;3179;54.350;10.102;2022-12-18T09:58:26;-1.10;99.10
6293;DHT22;3179;54.350;10.102;2022-12-18T10:00:54;-1.10;99.10
6293;DHT22;3179;54.350;10.102;2022-12-18T10:03:22;-1.00;99.20
6293;DHT22;3179;54.350;10.102;2022-12-18T10:05:58;-1.00;99.20
6293;DHT22;3179;54.350;10.102;2022-12-18T10:08:33;-1.00;99.20
6293;DHT22;3179;54.350;10.102;2022-12-18T10:11:16;-1.00;99.20
6293;DHT22;3179;54.350;10.102;2022-12-18T10:13:52;-1.00;99.20
6293;DHT22;3179;54.350;10.102;2022-12-18T10:16:23;-1.00;99.30
6293;DHT22;3179;54.350;10.102;2022-12-18T10:19:04;-1.00;99.30
6293;DHT22;3179;54.350;10.102;2022-12-18T10:21:41;-0.90;99.30
6293;DHT22;3179;54.350;10.102;2022-12-18T10:24:18;-0.80;99.40
6293;DHT22;3179;54.350;10.102;2022-12-18T10:26:52;-0.80;99.40
6293;DHT22;3179;54.350;10.102;2022-12-18T10:29:21;-0.80;99.50
6293;DHT22;3179;54.350;10.102;2022-12-18T10:31:47;-0.70;99.60
6293;DHT22;3179;54.350;10.102;2022-12-18T10:34:14;-0.60;99.50
6293;DHT22;3179;54.350;10.102;2022-12-18T10:36:41;-0.60;99.40
6293;DHT22;3179;54.350;10.102;2022-12-18T10:39:19;-0.60;99.40
6293;DHT22;3179;54.350;10.102;2022-12-18T10:41:47;-0.60;99.50
6293;DHT22;3179;54.350;10.102;2022-12-18T10:44:19;-0.60;99.60
6293;DHT22;3179;54.350;10.102;2022-12-18T10:46:49;-0.60;99.70
6293;DHT22;3179;54.350;10.102;2022-12-18T10:49:21;-0.60;99.60
6293;DHT22;3179;54.350;10.102;2022-12-18T10:51:48;-0.60;99.80
6293;DHT22;3179;54.350;10.102;2022-12-18T10:54:17;-0.60;99.80
6293;DHT22;3179;54.350;10.102;2022-12-18T10:56:45;-0.60;99.90
6293;DHT22;3179;54.350;10.102;2022-12-18T10:59:17;-0.60;99.90
6293;DHT22;3179;54.350;10.102;2022-12-18T11:01:52;-0.60;99.90
6293;DHT22;3179;54.350;10.102;2022-12-18T11:04:21;-0.60;99.90
6293;DHT22;3179;54.350;10.102;2022-12-18T11:06:57;-0.60;99.90
6293;DHT22;3179;54.350;10.102;2022-12-18T11:09:25;-0.60;99.90
6293;DHT22;3179;54.350;10.102;2022-12-18T11:11:54;-0.60;99.90
6293;DHT22;3179;54.350;10.102;2022-12-18T11:14:23;-0.60;99.90
6293;DHT22;3179;54.350;10.102;2022-12-18T11:16:53;-0.60;99.90
6293;DHT22;3179;54.350;10.102;2022-12-18T11:19:26;-0.50;99.90
6293;DHT22;3179;54.350;10.102;2022-12-18T11:21:55;-0.50;99.90
6293;DHT22;3179;54.350;10.102;2022-12-18T11:24:27;-0.50;99.90
6293;DHT22;3179;54.350;10.102;2022-12-18T11:26:55;-0.50;99.90
6293;DHT22;3179;54.350;10.102;2022-12-18T11:29:27;-0.50;99.90
6293;DHT22;3179;54.350;10.102;2022-12-18T11:32:27;-0.40;99.90
6293;DHT22;3179;54.350;10.102;2022-12-18T11:35:01;-0.40;99.90
6293;DHT22;3179;54.350;10.102;2022-12-18T11:37:29;-0.40;99.90
6293;DHT22;3179;54.350;10.102;2022-12-18T11:40:00;-0.40;99.90
6293;DHT22;3179;54.350;10.102;2022-12-18T11:42:34;-0.40;99.90
6293;DHT22;3179;54.350;10.102;2022-12-18T11:45:08;-0.40;99.90
6293;DHT22;3179;54.350;10.102;2022-12-18T11:47:47;-0.40;99.90
6293;DHT22;3179;54.350;10.102;2022-12-18T11:50:18;-0.40;99.90
6293;DHT22;3179;54.350;10.102;2022-12-18T11:52:46;-0.40;99.90
6293;DHT22;3179;54.350;10.102;2022-12-18T11:55:14;-0.40;99.90
6293;DHT22;3179;54.350;10.102;2022-12-18T11:57:48;-0.40;99.90
6293;DHT22;3179;54.350;10.102;2022-12-18T12:00:19;-0.40;99.90
6293;DHT22;3179;54.350;10.102;2022-12-18T12:03:14;-0.40;99.90
6293;DHT22;3179;54.350;10.102;2022-12-18T12:05:50;-0.40;99.90
6293;DHT22;3179;54.350;10.102;2022-12-18T12:08:26;-0.40;99.90
6293;DHT22;3179;54.350;10.102;2022-12-18T12:11:02;-0.40;99.90
6293;DHT22;3179;54.350;10.102;2022-12-18T12:13:41;-0.40;99.90
6293;DHT22;3179;54.350;10.102;2022-12-18T12:16:17;-0.40;99.90
6293;DHT22;3179;54.350;10.102;2022-12-18T12:18:55;-0.40;99.90
6293;DHT22;3179;54.350;10.102;2022-12-18T12:21:28;-0.40;99.90
6293;DHT22;3179;54.350;10.102;2022-12-18T12:24:07;-0.30;99.90
6293;DHT22;3179;54.350;10.102;2022-12-18T12:26:45;-0.30;99.90
6293;DHT22;3179;54.350;10.102;2022-12-18T12:29:26;-0.30;99.90
6293;DHT22;3179;54.350;10.102;2022-12-18T12:32:04;-0.30;99.90
6293;DHT22;3179;54.350;10.102;2022-12-18T12:34:44;-0.30;99.90
6293;DHT22;3179;54.350;10.102;2022-12-18T12:37:23;-0.30;99.90
6293;DHT22;3179;54.350;10.102;2022-12-18T12:39:55;-0.30;99.90
6293;DHT22;3179;54.350;10.102;2022-12-18T12:42:29;-0.30;99.90
6293;DHT22;3179;54.350;10.102;2022-12-18T12:45:18;-0.30;99.90
6293;DHT22;3179;54.350;10.102;2022-12-18T12:47:47;-0.30;99.90
6293;DHT22;3179;54.350;10.102;2022-12-18T12:50:18;-0.20;99.90
6293;DHT22;3179;54.350;10.102;2022-12-18T12:52:48;-0.30;99.90
6293;DHT22;3179;54.350;10.102;2022-12-18T12:55:18;-0.30;99.90
6293;DHT22;3179;54.350;10.102;2022-12-18T12:57:52;-0.30;99.90
6293;DHT22;3179;54.350;10.102;2022-12-18T13:00:21;-0.20;99.90
6293;DHT22;3179;54.350;10.102;2022-12-18T13:02:55;-0.20;99.90
6293;DHT22;3179;54.350;10.102;2022-12-18T13:05:29;-0.20;99.90
6293;DHT22;3179;54.350;10.102;2022-12-18T13:08:00;-0.20;99.90
6293;DHT22;3179;54.350;10.102;2022-12-18T13:10:33;-0.20;99.90
6293;DHT22;3179;54.350;10.102;2022-12-18T13:13:02;-0.20;99.90
6293;DHT22;3179;54.350;10.102;2022-12-18T13:15:38;-0.20;99.90
6293;DHT22;3179;54.350;10.102;2022-12-18T13:18:15;-0.20;99.90
6293;DHT22;3179;54.350;10.102;2022-12-18T13:20:46;-0.20;99.90
6293;DHT22;3179;54.350;10.102;2022-12-18T13:23:29;-0.20;99.90
6293;DHT22;3179;54.350;10.102;2022-12-18T13:25:56;-0.20;99.90
6293;DHT22;3179;54.350;10.102;2022-12-18T13:28:51;-0.20;99.90
6293;DHT22;3179;54.350;10.102;2022-12-18T13:34:33;-0.20;99.90
6293;DHT22;3179;54.350;10.102;2022-12-18T13:37:39;-0.20;99.90
6293;DHT22;3179;54.350;10.102;2022-12-18T13:43:21;-0.20;99.90
6293;DHT22;3179;54.350;10.102;2022-12-18T13:45:59;-0.20;99.90
6293;DHT22;3179;54.350;10.102;2022-12-18T13:48:27;-0.20;99.90
6293;DHT22;3179;54.350;10.102;2022-12-18T13:50:59;-0.20;99.90
6293;DHT22;3179;54.350;10.102;2022-12-18T13:53:30;-0.20;99.90
6293;DHT22;3179;54.350;10.102;2022-12-18T13:55:58;-0.20;99.90
6293;DHT22;3179;54.350;10.102;2022-12-18T13:58:25;-0.20;99.90
6293;DHT22;3179;54.350;10.102;2022-12-18T14:00:52;-0.20;99.90
6293;DHT22;3179;54.350;10.102;2022-12-18T14:03:22;-0.20;99.90
6293;DHT22;3179;54.350;10.102;2022-12-18T14:05:54;-0.20;99.90
6293;DHT22;3179;54.350;10.102;2022-12-18T14:08:23;-0.30;99.90
6293;DHT22;3179;54.350;10.102;2022-12-18T14:10:52;-0.30;99.80
6293;DHT22;3179;54.350;10.102;2022-12-18T14:13:23;-0.30;99.80
6293;DHT22;3179;54.350;10.102;2022-12-18T14:15:51;-0.20;99.80
6293;DHT22;3179;54.350;10.102;2022-12-18T14:18:21;-0.20;99.70
6293;DHT22;3179;54.350;10.102;2022-12-18T14:20:50;-0.20;99.90
6293;DHT22;3179;54.350;10.102;2022-12-18T14:23:32;-0.20;99.70
6293;DHT22;3179;54.350;10.102;2022-12-18T14:26:03;-0.20;99.70
6293;DHT22;3179;54.350;10.102;2022-12-18T14:28:30;-0.30;99.60
6293;DHT22;3179;54.350;10.102;2022-12-18T14:30:57;-0.30;99.60
6293;DHT22;3179;54.350;10.102;2022-12-18T14:33:25;-0.30;99.50
6293;DHT22;3179;54.350;10.102;2022-12-18T14:35:55;-0.30;99.50
6293;DHT22;3179;54.350;10.102;2022-12-18T14:38:28;-0.30;99.50
6293;DHT22;3179;54.350;10.102;2022-12-18T14:41:05;-0.30;99.40
6293;DHT22;3179;54.350;10.102;2022-12-18T14:43:34;-0.20;99.40
6293;DHT22;3179;54.350;10.102;2022-12-18T14:46:02;-0.30;99.40
6293;DHT22;3179;54.350;10.102;2022-12-18T14:48:37;-0.30;99.40
6293;DHT22;3179;54.350;10.102;2022-12-18T14:51:06;-0.30;99.40
6293;DHT22;3179;54.350;10.102;2022-12-18T14:53:35;-0.30;99.30
6293;DHT22;3179;54.350;10.102;2022-12-18T14:56:09;-0.30;99.30
6293;DHT22;3179;54.350;10.102;2022-12-18T14:58:36;-0.30;99.30
6293;DHT22;3179;54.350;10.102;2022-12-18T15:01:03;-0.30;99.20
6293;DHT22;3179;54.350;10.102;2022-12-18T15:03:30;-0.30;99.20
6293;DHT22;3179;54.350;10.102;2022-12-18T15:06:15;-0.30;99.20
6293;DHT22;3179;54.350;10.102;2022-12-18T15:08:42;-0.30;99.10
6293;DHT22;3179;54.350;10.102;2022-12-18T15:14:30;-0.40;99.10
6293;DHT22;3179;54.350;10.102;2022-12-18T15:16:58;-0.40;99.00
6293;DHT22;3179;54.350;10.102;2022-12-18T15:19:33;-0.40;99.00
6293;DHT22;3179;54.350;10.102;2022-12-18T15:22:00;-0.40;99.00
6293;DHT22;3179;54.350;10.102;2022-12-18T15:24:31;-0.40;99.00
6293;DHT22;3179;54.350;10.102;2022-12-18T15:27:23;-0.40;98.90
6293;DHT22;3179;54.350;10.102;2022-12-18T15:30:20;-0.40;99.20
6293;DHT22;3179;54.350;10.102;2022-12-18T15:32:49;-0.40;98.90
6293;DHT22;3179;54.350;10.102;2022-12-18T15:35:19;-0.40;98.90
6293;DHT22;3179;54.350;10.102;2022-12-18T15:37:46;-0.40;98.90
6293;DHT22;3179;54.350;10.102;2022-12-18T15:40:14;-0.40;98.90
6293;DHT22;3179;54.350;10.102;2022-12-18T15:42:41;-0.50;98.80
6293;DHT22;3179;54.350;10.102;2022-12-18T15:45:28;-0.40;98.90
6293;DHT22;3179;54.350;10.102;2022-12-18T15:47:55;-0.40;98.80
6293;DHT22;3179;54.350;10.102;2022-12-18T15:50:22;-0.50;98.80
6293;DHT22;3179;54.350;10.102;2022-12-18T15:52:51;-0.50;98.80
6293;DHT22;3179;54.350;10.102;2022-12-18T15:55:19;-0.50;98.80
6293;DHT22;3179;54.350;10.102;2022-12-18T15:58:04;-0.40;98.80
6293;DHT22;3179;54.350;10.102;2022-12-18T16:00:34;-0.50;98.80
6293;DHT22;3179;54.350;10.102;2022-12-18T16:03:01;-0.50;98.80
6293;DHT22;3179;54.350;10.102;2022-12-18T16:05:29;-0.50;99.10
6293;DHT22;3179;54.350;10.102;2022-12-18T16:07:56;-0.50;98.80
6293;DHT22;3179;54.350;10.102;2022-12-18T16:10:24;-0.50;98.80
6293;DHT22;3179;54.350;10.102;2022-12-18T16:12:51;-0.50;98.90
6293;DHT22;3179;54.350;10.102;2022-12-18T16:15:18;-0.50;98.90